Time;durP1;ratioP1;P1;durP2;ratioP2;P2;SDS_P1;SDS_P2;PMS_P1;PMS_P2;Temp;Humidity;BMP_temperature;BMP_pressure;BME280_temperature;BME280_humidity;BME280_pressure;Samples;Min_cycle;Max_cycle;Signal;HPM_P1;HPM_P2
2021/07/12 00:00:33;;;;;;;5.60;4.57;;;17.40;99.90;;;17.35;90.02;98005.22;5116418;28;20643;-65
2021/07/12 00:03:03;;;;;;;5.83;5.33;;;17.40;99.90;;;17.34;88.85;98000.09;5114699;27;21076;-65
2021/07/12 00:05:32;;;;;;;5.53;4.50;;;17.40;99.90;;;17.31;89.28;97998.59;5109427;27;20727;-65
2021/07/12 00:08:01;;;;;;;8.67;4.70;;;17.40;99.90;;;17.30;90.20;97998.72;5117372;27;20643;-65
2021/07/12 00:10:30;;;;;;;4.97;4.53;;;17.30;99.90;;;17.28;89.99;97995.44;5111142;27;20666;-66
2021/07/12 00:13:00;;;;;;;6.00;5.07;;;17.30;99.90;;;17.24;90.19;97994.88;5118055;27;20651;-65
2021/07/12 00:15:30;;;;;;;7.93;6.70;;;17.30;99.90;;;17.25;89.68;97990.44;5113609;27;20640;-65
2021/07/12 00:18:00;;;;;;;6.97;5.30;;;17.30;99.90;;;17.26;89.09;97981.53;5119018;27;20744;-65
2021/07/12 00:20:29;;;;;;;5.73;5.07;;;17.30;99.90;;;17.23;90.18;97977.41;5115905;27;21275;-65
2021/07/12 00:22:59;;;;;;;6.27;5.10;;;17.20;99.90;;;17.19;89.48;97975.19;5091013;27;20637;-65
2021/07/12 00:25:29;;;;;;;6.97;4.53;;;17.20;99.90;;;17.17;88.59;97977.13;5114028;27;20722;-65
2021/07/12 00:28:00;;;;;;;5.27;4.70;;;17.20;99.90;;;17.11;89.93;97972.47;5118966;27;20655;-65
2021/07/12 00:30:29;;;;;;;5.80;5.10;;;17.20;99.90;;;17.08;89.17;97967.50;5113871;27;21006;-65
2021/07/12 00:32:58;;;;;;;5.43;4.90;;;17.10;99.90;;;17.06;90.05;97958.88;5110493;27;20637;-65
2021/07/12 00:35:27;;;;;;;5.97;5.27;;;17.10;99.90;;;17.06;90.09;97966.78;5111184;27;20623;-66
2021/07/12 00:37:58;;;;;;;6.67;5.10;;;17.10;99.90;;;17.03;89.12;97954.75;5099053;27;20647;-65
2021/07/12 00:40:36;;;;;;;7.60;5.20;;;17.10;99.90;;;17.01;90.67;97955.88;5111588;27;20680;-65
2021/07/12 00:43:05;;;;;;;6.37;5.00;;;17.00;99.90;;;16.98;89.09;97951.72;5094926;27;21191;-65
2021/07/12 00:45:36;;;;;;;6.63;5.07;;;17.00;99.90;;;16.96;90.19;97942.31;5113862;27;20677;-66
2021/07/12 00:48:07;;;;;;;5.93;4.77;;;17.00;99.90;;;16.93;90.09;97941.75;5114365;27;21090;-65
2021/07/12 00:50:40;;;;;;;4.80;4.40;;;17.00;99.90;;;16.90;88.92;97936.78;5110904;27;20717;-65
2021/07/12 00:53:12;;;;;;;5.33;4.83;;;16.90;99.90;;;16.85;88.52;97934.59;5107951;27;21051;-65
2021/07/12 00:55:44;;;;;;;5.17;4.50;;;16.90;99.90;;;16.83;88.56;97930.47;5111597;27;21243;-65
2021/07/12 00:58:16;;;;;;;4.93;4.43;;;16.90;99.90;;;16.82;90.62;97932.25;5124345;27;20722;-65
2021/07/12 01:00:47;;;;;;;4.70;4.30;;;16.90;99.90;;;16.80;89.41;97925.47;5115058;27;20900;-65
2021/07/12 01:03:17;;;;;;;5.33;4.93;;;16.90;99.90;;;16.79;88.71;97923.81;5096122;28;20653;-65
2021/07/12 01:05:46;;;;;;;8.43;4.80;;;16.80;99.90;;;16.77;90.60;97909.97;5114305;27;20632;-65
2021/07/12 01:08:17;;;;;;;5.50;5.00;;;16.80;99.90;;;16.75;90.96;97912.75;5107715;27;20630;-65
2021/07/12 01:11:32;;;;;;;5.67;5.07;;;16.80;99.90;;;16.71;89.49;97911.38;5105905;27;20733;-65
2021/07/12 01:14:12;;;;;;;5.30;4.80;;;16.80;99.90;;;16.69;90.88;97905.44;5093061;27;20646;-65
2021/07/12 01:17:00;;;;;;;5.87;5.27;;;16.80;99.90;;;16.69;89.40;97902.81;5092223;27;20615;-65
2021/07/12 01:20:22;;;;;;;5.77;4.83;;;16.70;99.90;;;16.65;89.62;97904.06;5092249;28;21007;-65
2021/07/12 01:23:20;;;;;;;6.73;5.20;;;16.70;99.90;;;16.60;88.98;97897.59;5036741;27;20729;-65
2021/07/12 01:26:35;;;;;;;5.93;5.17;;;16.70;99.90;;;16.56;89.01;97901.47;5114728;27;20657;-65
2021/07/12 01:29:31;;;;;;;5.27;4.27;;;16.60;99.90;;;16.51;89.10;97911.63;5087379;28;21004;-65
2021/07/12 01:32:36;;;;;;;5.70;5.10;;;16.60;99.90;;;16.48;89.64;97911.06;5112343;27;20716;-65
2021/07/12 01:35:11;;;;;;;5.40;4.90;;;16.50;99.90;;;16.44;90.61;97907.09;5079202;27;21310;-65
2021/07/12 01:37:57;;;;;;;5.23;4.73;;;16.50;99.90;;;16.42;89.58;97901.13;5094199;27;20698;-65
2021/07/12 01:40:33;;;;;;;5.80;4.47;;;16.40;99.90;;;16.40;89.05;97900.44;5112938;27;20616;-65
2021/07/12 01:43:08;;;;;;;7.00;4.80;;;16.50;99.90;;;16.38;90.49;97890.06;5110087;27;21008;-65
2021/07/12 01:45:51;;;;;;;8.73;5.50;;;16.40;99.90;;;16.36;90.84;97884.13;5113740;27;20702;-65
2021/07/12 01:48:34;;;;;;;6.77;4.80;;;16.40;99.90;;;16.35;90.02;97877.19;5091508;27;20632;-65
2021/07/12 01:51:10;;;;;;;6.57;5.90;;;16.40;99.90;;;16.36;91.23;97880.66;5105244;27;20721;-65
2021/07/12 01:53:47;;;;;;;9.13;5.87;;;16.40;99.90;;;16.34;91.64;97883.44;5116899;27;20995;-65
2021/07/12 01:56:22;;;;;;;7.60;4.80;;;16.30;99.90;;;16.33;91.37;97879.16;5116379;27;20629;-65
2021/07/12 01:59:04;;;;;;;5.40;5.00;;;16.30;99.90;;;16.31;90.54;97877.63;5090301;27;21195;-65
2021/07/12 02:01:38;;;;;;;6.00;5.50;;;16.40;99.90;;;16.31;91.39;97869.72;5123579;27;20679;-65
2021/07/12 02:04:14;;;;;;;6.97;5.20;;;16.30;99.90;;;16.25;89.16;97870.28;5107738;27;20623;-65
2021/07/12 02:06:44;;;;;;;6.00;5.10;;;16.30;99.90;;;16.22;90.53;97862.69;5110911;27;20763;-65
2021/07/12 02:09:17;;;;;;;7.20;4.90;;;16.30;99.90;;;16.17;90.21;97863.09;5120316;27;20639;-65
2021/07/12 02:11:54;;;;;;;5.10;4.40;;;16.20;99.90;;;16.16;90.19;97865.88;5119814;27;20657;-65
2021/07/12 02:14:24;;;;;;;7.83;5.37;;;16.20;99.90;;;16.14;89.67;97858.13;5113639;27;20665;-65
2021/07/12 02:16:55;;;;;;;5.30;4.80;;;16.20;99.90;;;16.14;91.70;97863.38;5091543;27;20643;-65
2021/07/12 02:19:32;;;;;;;6.17;5.03;;;16.20;99.90;;;16.14;91.18;97867.81;5122479;27;20713;-65
2021/07/12 02:22:02;;;;;;;5.07;4.57;;;16.20;99.90;;;16.11;90.20;97871.56;5120128;27;20657;-65
2021/07/12 02:24:50;;;;;;;5.40;4.90;;;16.20;99.90;;;16.09;90.55;97876.16;5113411;27;20630;-65
2021/07/12 02:27:22;;;;;;;5.50;4.83;;;16.10;99.90;;;16.08;91.09;97877.09;5095630;27;20639;-65
2021/07/12 02:29:56;;;;;;;6.07;4.73;;;16.10;99.90;;;16.07;90.88;97869.34;5115171;27;20644;-65
2021/07/12 02:32:28;;;;;;;10.10;5.27;;;16.10;99.90;;;16.06;88.87;97875.63;5091195;28;20765;-65
2021/07/12 02:35:00;;;;;;;5.83;5.10;;;16.10;99.90;;;16.05;90.75;97871.31;5099079;27;20637;-65
2021/07/12 02:37:38;;;;;;;6.63;5.10;;;16.10;99.90;;;16.02;91.29;97863.72;5087365;28;20688;-65
2021/07/12 02:40:12;;;;;;;8.00;5.00;;;16.10;99.90;;;16.01;90.15;97864.66;5094578;27;20727;-65
2021/07/12 02:42:48;;;;;;;7.00;5.00;;;16.10;99.90;;;15.99;90.07;97874.50;5114626;27;20618;-65
2021/07/12 02:45:20;;;;;;;5.80;5.20;;;16.10;99.90;;;15.97;90.75;97875.66;5113979;27;20627;-65
2021/07/12 02:47:52;;;;;;;6.60;5.43;;;16.10;99.90;;;15.95;90.95;97875.78;5119009;27;20618;-65
2021/07/12 02:50:22;;;;;;;6.13;5.53;;;16.00;99.90;;;15.95;91.95;97872.31;5114917;27;20704;-65
2021/07/12 02:53:02;;;;;;;6.17;5.30;;;16.00;99.90;;;15.95;90.83;97883.69;5102753;28;20633;-65
2021/07/12 02:55:31;;;;;;;9.73;5.20;;;16.00;99.90;;;15.94;89.55;97883.81;5111765;27;20685;-65
2021/07/12 02:57:59;;;;;;;5.70;5.10;;;16.00;99.90;;;15.92;91.49;97883.13;5091642;28;20627;-65
2021/07/12 03:00:28;;;;;;;5.53;5.03;;;16.00;99.90;;;15.90;90.73;97880.63;5110296;27;20638;-65
2021/07/12 03:02:58;;;;;;;8.80;5.60;;;16.00;99.90;;;15.89;90.44;97875.50;5116732;27;20643;-65
2021/07/12 03:05:28;;;;;;;5.60;5.10;;;15.90;99.90;;;15.87;89.68;97869.56;5111824;27;20631;-65
2021/07/12 03:08:06;;;;;;;5.80;5.30;;;16.00;99.90;;;15.86;89.23;97871.38;5087003;28;20716;-65
2021/07/12 03:10:42;;;;;;;5.20;4.60;;;16.00;99.90;;;15.85;91.75;97877.59;5120139;27;20629;-65
2021/07/12 03:13:17;;;;;;;8.30;5.50;;;15.90;99.90;;;15.84;90.00;97875.94;5118301;27;20669;-65
2021/07/12 03:15:51;;;;;;;6.10;5.50;;;15.90;99.90;;;15.82;89.04;97882.34;5089128;28;20627;-65
2021/07/12 03:18:24;;;;;;;6.00;5.10;;;15.90;99.90;;;15.79;88.99;97879.97;5121682;27;20687;-65
2021/07/12 03:20:57;;;;;;;6.37;5.23;;;15.90;99.90;;;15.77;91.07;97877.50;5097354;28;20641;-65
2021/07/12 03:23:28;;;;;;;8.47;5.13;;;15.90;99.90;;;15.78;90.46;97876.50;5118915;27;21159;-65
2021/07/12 03:26:01;;;;;;;7.57;4.97;;;15.90;99.90;;;15.80;90.61;97868.47;5098001;28;20634;-65
2021/07/12 03:28:29;;;;;;;7.13;5.50;;;15.90;99.90;;;15.79;89.88;97872.91;5109719;28;21040;-65
2021/07/12 03:30:59;;;;;;;5.67;5.10;;;15.80;99.90;;;15.80;91.42;97865.84;5105767;28;20639;-65
2021/07/12 03:33:30;;;;;;;6.10;5.50;;;15.90;99.90;;;15.81;91.65;97865.69;5092687;28;20713;-65
2021/07/12 03:36:02;;;;;;;5.53;4.93;;;15.80;99.90;;;15.81;91.77;97863.06;5095035;28;20635;-65
2021/07/12 03:38:32;;;;;;;6.17;5.20;;;15.90;99.90;;;15.80;91.40;97857.94;5092846;27;21010;-65
2021/07/12 03:41:03;;;;;;;5.67;5.17;;;15.90;99.90;;;15.76;88.95;97856.59;5097722;28;20701;-66
2021/07/12 03:43:32;;;;;;;5.63;5.03;;;15.80;99.90;;;15.73;90.50;97846.38;5114460;27;20686;-65
2021/07/12 03:46:03;;;;;;;5.90;5.30;;;15.80;99.90;;;15.71;90.06;97849.13;5095420;28;20627;-65
2021/07/12 03:48:39;;;;;;;5.70;5.20;;;15.80;99.90;;;15.69;89.19;97843.16;5094825;28;20667;-65
2021/07/12 03:51:17;;;;;;;12.13;5.97;;;15.80;99.90;;;15.68;89.97;97844.16;5115907;27;22991;-65
2021/07/12 03:53:48;;;;;;;6.30;5.70;;;15.80;99.90;;;15.73;90.21;97843.72;5098835;27;20629;-65
2021/07/12 03:56:16;;;;;;;7.87;5.50;;;15.80;99.90;;;15.74;90.20;97835.69;5115695;27;20715;-65
2021/07/12 03:58:46;;;;;;;6.50;5.40;;;15.80;99.90;;;15.77;90.69;97838.03;5107438;27;20662;-65
2021/07/12 04:01:19;;;;;;;5.37;4.87;;;15.80;99.90;;;15.77;91.01;97835.41;5094628;27;21088;-65
2021/07/12 04:03:49;;;;;;;5.80;5.20;;;15.80;99.90;;;15.78;90.49;97837.06;5114148;27;20631;-66
2021/07/12 04:06:19;;;;;;;5.57;4.83;;;15.80;99.90;;;15.83;91.85;97839.25;5115233;27;20668;-65
2021/07/12 04:08:48;;;;;;;9.43;5.20;;;15.80;99.90;;;15.87;91.48;97838.84;5112931;27;21002;-65
2021/07/12 04:11:18;;;;;;;7.90;5.43;;;15.90;99.90;;;15.91;90.46;97834.94;5117666;27;21018;-65
2021/07/12 04:13:47;;;;;;;7.00;5.43;;;15.90;99.90;;;15.93;92.40;97838.25;5110739;27;20635;-65
2021/07/12 04:16:16;;;;;;;8.27;5.73;;;15.90;99.90;;;15.97;91.30;97844.91;5107277;27;20629;-65
2021/07/12 04:18:45;;;;;;;6.20;5.20;;;16.00;99.90;;;15.99;92.38;97848.22;5111087;27;20625;-65
2021/07/12 04:21:14;;;;;;;5.63;5.13;;;16.00;99.90;;;16.02;91.79;97842.66;5110636;27;21053;-65
2021/07/12 04:23:44;;;;;;;7.60;5.53;;;16.00;99.90;;;16.07;90.29;97849.16;5112111;27;20746;-65
2021/07/12 04:26:13;;;;;;;8.80;6.07;;;16.10;99.90;;;16.07;91.56;97843.91;5119172;27;20635;-65
2021/07/12 04:28:41;;;;;;;8.90;5.97;;;16.00;99.90;;;16.08;91.02;97845.53;5117182;27;20635;-65
2021/07/12 04:31:14;;;;;;;6.30;5.70;;;16.00;99.90;;;16.10;90.26;97840.97;5111424;27;21220;-65
2021/07/12 04:33:43;;;;;;;7.00;5.57;;;16.10;99.90;;;16.13;89.71;97837.22;5109076;27;20691;-65
2021/07/12 04:36:12;;;;;;;5.60;5.07;;;16.10;99.90;;;16.17;90.87;97825.44;5116342;27;20633;-65
2021/07/12 04:38:41;;;;;;;6.33;5.70;;;16.20;99.90;;;16.21;90.62;97821.53;5080056;27;20646;-65
2021/07/12 04:41:11;;;;;;;8.63;5.37;;;16.20;99.90;;;16.24;91.95;97822.09;5114161;27;20742;-66
2021/07/12 04:43:40;;;;;;;6.53;5.23;;;16.20;99.90;;;16.30;90.86;97815.44;5085064;27;20630;-66
2021/07/12 04:46:09;;;;;;;6.57;5.97;;;16.30;99.90;;;16.34;92.17;97811.50;5112187;27;21196;-65
2021/07/12 04:48:39;;;;;;;7.27;5.70;;;16.30;99.90;;;16.38;91.18;97807.63;5114253;27;20621;-65
2021/07/12 04:51:07;;;;;;;6.40;5.80;;;16.40;99.90;;;16.44;92.56;97807.03;5119859;27;20636;-65
2021/07/12 04:53:38;;;;;;;7.77;5.80;;;16.40;99.90;;;16.49;92.23;97810.06;5094126;27;21031;-65
2021/07/12 04:56:08;;;;;;;6.53;5.20;;;16.50;99.90;;;16.51;90.71;97809.75;5111596;27;20627;-66
2021/07/12 04:58:43;;;;;;;6.03;5.13;;;16.50;99.90;;;16.56;90.87;97811.94;5109507;27;21067;-65
2021/07/12 05:01:12;;;;;;;5.73;5.23;;;16.50;99.90;;;16.61;91.39;97810.53;5111148;27;20627;-65
2021/07/12 05:03:43;;;;;;;5.67;5.17;;;16.60;99.90;;;16.66;91.65;97803.00;5109059;27;20642;-65
2021/07/12 05:06:12;;;;;;;5.20;4.70;;;16.70;99.90;;;16.65;90.10;97805.78;5113122;27;21219;-66
2021/07/12 05:08:40;;;;;;;6.80;6.07;;;16.60;99.90;;;16.66;90.63;97813.53;5114674;27;20670;-67
2021/07/12 05:11:10;;;;;;;6.10;5.03;;;16.60;99.90;;;16.74;90.77;97820.69;5119758;27;20697;-67
2021/07/12 05:13:41;;;;;;;8.30;6.13;;;16.70;99.90;;;16.79;91.32;97813.16;5105894;27;20652;-67
2021/07/12 05:16:10;;;;;;;6.50;5.90;;;16.70;99.90;;;16.85;90.80;97818.66;5106100;27;20633;-67
2021/07/12 05:18:39;;;;;;;7.33;6.20;;;16.80;99.90;;;16.93;90.70;97816.13;5109438;27;20646;-67
2021/07/12 05:21:08;;;;;;;5.87;5.27;;;16.90;99.90;;;17.01;92.08;97824.09;5110335;27;21190;-67
2021/07/12 05:23:37;;;;;;;5.97;5.37;;;16.90;99.90;;;17.09;91.02;97827.66;5093498;28;20638;-67
2021/07/12 05:26:06;;;;;;;7.23;5.53;;;17.00;99.90;;;17.17;91.88;97825.09;5114855;27;20690;-67
2021/07/12 05:28:37;;;;;;;5.73;5.23;;;17.10;99.90;;;17.28;91.46;97827.50;5110864;27;21175;-67
2021/07/12 05:31:08;;;;;;;5.87;5.33;;;17.20;99.90;;;17.38;90.71;97830.06;5111542;27;20630;-67
2021/07/12 05:33:37;;;;;;;8.33;5.50;;;17.30;99.90;;;17.49;91.49;97820.91;5112755;27;21116;-67
2021/07/12 05:36:06;;;;;;;7.67;5.47;;;17.40;99.90;;;17.62;90.89;97820.50;5117899;27;20629;-67
2021/07/12 05:38:35;;;;;;;8.23;5.13;;;17.50;99.90;;;17.75;90.75;97811.19;5113794;27;20632;-67
2021/07/12 05:41:03;;;;;;;5.63;4.93;;;17.60;99.90;;;17.89;91.16;97807.16;5110406;27;20659;-67
2021/07/12 05:43:32;;;;;;;6.53;5.23;;;17.70;99.90;;;18.00;89.82;97811.19;5109980;27;21264;-67
2021/07/12 05:46:01;;;;;;;5.63;5.10;;;17.90;99.90;;;18.12;88.95;97802.00;5115091;27;20630;-67
2021/07/12 05:48:31;;;;;;;5.90;5.30;;;18.00;99.90;;;18.31;88.62;97800.97;5103047;27;20627;-67
2021/07/12 05:50:59;;;;;;;5.80;5.20;;;18.10;99.90;;;18.71;87.52;97802.75;5113192;28;21034;-65
2021/07/12 05:53:29;;;;;;;5.87;4.70;;;18.40;99.90;;;19.30;87.66;97808.63;5106673;28;20719;-65
2021/07/12 05:55:58;;;;;;;5.60;4.80;;;18.90;99.90;;;19.94;84.46;97807.59;5108745;28;20626;-65
2021/07/12 05:58:26;;;;;;;5.40;4.50;;;19.50;99.90;;;20.54;82.93;97795.47;5102448;28;20631;-70
2021/07/12 06:00:55;;;;;;;4.70;4.27;;;20.00;99.90;;;21.08;81.53;97796.16;5103931;28;21485;-74
2021/07/12 06:03:24;;;;;;;5.37;4.83;;;20.60;99.90;;;21.55;79.97;97802.94;5104936;28;21200;-68
2021/07/12 06:05:54;;;;;;;5.40;4.13;;;21.10;99.90;;;21.99;78.79;97803.84;5109752;28;20618;-69
2021/07/12 06:08:23;;;;;;;5.50;4.20;;;21.60;99.60;;;22.41;78.50;97805.69;5106526;27;20637;-68
2021/07/12 06:10:51;;;;;;;4.70;4.30;;;22.00;99.00;;;22.79;76.88;97807.19;5083828;28;20626;-68
2021/07/12 06:13:20;;;;;;;4.60;4.13;;;22.40;97.90;;;23.15;76.12;97797.41;5105348;27;20773;-68
2021/07/12 06:15:48;;;;;;;4.10;3.70;;;22.80;97.20;;;23.38;75.09;97807.69;5106362;27;20687;-68
2021/07/12 06:18:18;;;;;;;5.53;4.13;;;23.10;96.20;;;23.63;75.66;97803.59;5115148;27;21160;-67
2021/07/12 06:20:46;;;;;;;4.30;3.83;;;23.40;96.00;;;23.88;75.13;97807.53;5108058;27;21225;-67
2021/07/12 06:23:16;;;;;;;5.30;4.23;;;23.60;95.40;;;24.16;74.30;97814.50;5088986;28;21319;-67
2021/07/12 06:25:45;;;;;;;4.00;3.70;;;23.80;95.00;;;24.32;72.66;97815.00;5105691;28;20655;-67
2021/07/12 06:28:13;;;;;;;4.50;3.37;;;24.10;94.20;;;24.56;72.42;97811.88;5104518;28;20737;-67
2021/07/12 06:30:42;;;;;;;3.40;3.10;;;24.20;93.50;;;24.79;72.31;97813.22;5109533;28;20625;-68
2021/07/12 06:33:11;;;;;;;3.80;3.50;;;24.50;93.00;;;25.05;70.99;97817.81;5107095;28;21196;-67
2021/07/12 06:35:39;;;;;;;4.13;3.73;;;24.70;92.50;;;25.20;70.63;97814.81;5104305;28;20653;-67
2021/07/12 06:38:08;;;;;;;4.27;3.87;;;24.80;91.80;;;25.37;70.41;97816.06;5102713;28;20734;-67
2021/07/12 06:40:38;;;;;;;3.73;3.43;;;25.00;91.80;;;25.33;69.86;97809.50;5101728;28;20737;-67
2021/07/12 06:43:07;;;;;;;3.83;3.53;;;24.90;90.70;;;25.40;69.70;97804.97;5105413;28;21155;-67
2021/07/12 06:45:39;;;;;;;5.73;3.70;;;25.00;90.60;;;25.55;69.93;97804.78;5106771;28;20623;-67
2021/07/12 06:48:08;;;;;;;4.10;3.70;;;25.10;90.70;;;25.72;69.20;97806.88;5106096;28;20662;-67
2021/07/12 06:50:39;;;;;;;3.40;3.10;;;25.30;90.40;;;25.82;69.13;97792.06;5086572;28;20621;-67
2021/07/12 06:53:28;;;;;;;3.57;3.27;;;25.40;90.20;;;26.06;69.29;97794.09;5109552;28;20766;-67
2021/07/12 06:55:58;;;;;;;3.40;2.97;;;25.60;90.00;;;26.08;68.23;97792.88;5104304;28;20689;-67
2021/07/12 06:58:28;;;;;;;3.70;3.30;;;25.70;88.20;;;26.20;68.26;97783.16;5117442;27;20667;-68
2021/07/12 07:00:57;;;;;;;3.80;2.77;;;25.80;88.10;;;26.35;68.13;97785.63;5110740;27;20633;-68
2021/07/12 07:03:25;;;;;;;2.40;2.13;;;25.90;88.10;;;26.36;66.76;97788.09;5105704;27;21021;-68
2021/07/12 07:05:54;;;;;;;2.67;2.47;;;26.00;85.50;;;26.41;67.88;97787.47;5092901;27;20660;-69
2021/07/12 07:08:36;;;;;;;3.17;2.37;;;26.00;85.70;;;26.48;67.23;97780.25;5104135;27;20637;-69
2021/07/12 07:11:11;;;;;;;3.00;2.13;;;26.10;85.00;;;26.38;65.67;97777.19;5112761;27;20633;-69
2021/07/12 07:13:40;;;;;;;2.33;2.13;;;26.10;82.00;;;26.30;65.16;97782.78;5102057;28;20666;-69
2021/07/12 07:16:08;;;;;;;3.03;2.47;;;25.90;79.90;;;26.40;66.20;97778.63;5079244;28;20726;-69
2021/07/12 07:18:37;;;;;;;2.00;1.80;;;26.00;81.50;;;26.74;65.96;97772.94;5120374;27;20630;-69
2021/07/12 07:21:09;;;;;;;3.20;2.60;;;26.20;81.60;;;26.98;65.24;97765.00;5107803;28;20658;-69
2021/07/12 07:23:38;;;;;;;2.50;2.30;;;26.50;81.10;;;27.18;66.05;97760.34;5112353;28;20613;-69
2021/07/12 07:26:07;;;;;;;2.60;2.40;;;26.70;81.20;;;27.35;66.00;97767.66;5088928;28;20617;-68
2021/07/12 07:28:37;;;;;;;2.23;2.03;;;26.90;81.00;;;27.46;65.92;97766.97;5104968;28;21177;-69
2021/07/12 07:31:06;;;;;;;2.30;2.10;;;27.10;82.40;;;27.48;63.98;97758.72;5107038;28;20647;-69
2021/07/12 07:33:35;;;;;;;1.70;1.60;;;27.10;78.80;;;27.49;62.69;97753.13;5104652;28;21045;-69
2021/07/12 07:36:04;;;;;;;1.90;1.67;;;27.20;75.80;;;27.41;61.36;97744.53;5105728;28;20740;-69
2021/07/12 07:38:33;;;;;;;2.23;2.03;;;27.10;73.10;;;27.36;61.88;97739.81;5106179;28;21154;-69
2021/07/12 07:41:02;;;;;;;2.20;2.00;;;27.10;72.50;;;27.37;62.93;97728.06;5108793;28;20623;-69
2021/07/12 07:43:31;;;;;;;2.00;1.80;;;27.10;73.50;;;27.30;61.39;97721.91;5110942;28;20622;-69
2021/07/12 07:46:01;;;;;;;2.33;2.00;;;27.10;70.40;;;27.34;61.68;97709.75;5089530;28;20657;-69
2021/07/12 07:48:30;;;;;;;2.27;2.07;;;27.10;72.40;;;27.65;62.52;97707.84;5110735;28;20614;-69
2021/07/12 07:50:58;;;;;;;2.47;1.83;;;27.30;74.20;;;27.91;62.74;97702.22;5111241;28;20728;-69
2021/07/12 07:53:27;;;;;;;2.33;1.83;;;27.60;73.30;;;28.13;60.73;97693.56;5105514;28;20955;-69
2021/07/12 07:55:56;;;;;;;2.37;2.17;;;27.80;71.20;;;28.26;59.55;97682.66;5108116;28;20723;-69
2021/07/12 07:58:24;;;;;;;2.20;2.00;;;27.80;69.00;;;28.47;60.04;97679.50;5109408;28;20672;-69
2021/07/12 08:00:53;;;;;;;4.90;1.73;;;28.10;68.20;;;28.61;59.37;97689.03;5096710;28;20694;-69
2021/07/12 08:03:23;;;;;;;2.10;1.90;;;28.20;68.70;;;28.68;59.62;97687.94;5104616;28;20634;-69
2021/07/12 08:05:52;;;;;;;2.20;2.00;;;28.30;67.60;;;28.75;58.83;97687.88;5111934;28;21348;-69
2021/07/12 08:08:20;;;;;;;1.93;1.73;;;28.40;66.70;;;28.86;58.65;97684.38;5112310;28;20622;-69
2021/07/12 08:10:49;;;;;;;2.20;1.93;;;28.50;65.50;;;28.92;57.81;97684.28;5123316;28;20634;-69
2021/07/12 08:13:18;;;;;;;4.80;2.23;;;28.50;65.10;;;28.97;57.50;97680.91;5085933;28;21238;-69
2021/07/12 08:16:03;;;;;;;1.80;1.60;;;28.60;63.90;;;29.02;58.48;97677.31;5104640;28;20622;-69
2021/07/12 08:18:35;;;;;;;1.87;1.77;;;28.60;64.70;;;28.95;58.74;97662.34;5107865;28;20629;-69
2021/07/12 08:21:04;;;;;;;2.10;1.90;;;28.60;64.90;;;29.05;58.17;97647.28;5108809;28;20707;-69
2021/07/12 08:23:33;;;;;;;2.53;2.00;;;28.70;63.90;;;29.01;58.40;97639.91;5112688;27;20973;-68
2021/07/12 08:26:02;;;;;;;1.90;1.80;;;28.70;64.70;;;28.91;57.54;97645.03;5114665;27;20631;-68
2021/07/12 08:28:30;;;;;;;2.00;1.80;;;28.70;62.70;;;28.80;58.89;97645.81;5110356;27;20634;-68
2021/07/12 08:30:59;;;;;;;4.90;1.83;;;28.50;64.40;;;28.74;58.26;97638.66;5109791;27;21300;-68
2021/07/12 08:33:27;;;;;;;2.80;2.07;;;28.50;62.40;;;28.86;60.03;97636.84;5110728;27;20631;-68
2021/07/12 08:35:57;;;;;;;1.97;1.80;;;28.50;65.10;;;28.89;57.76;97641.75;5109126;28;20616;-68
2021/07/12 08:38:27;;;;;;;3.00;1.90;;;28.60;62.90;;;28.82;56.89;97640.22;5110720;27;20640;-68
2021/07/12 08:40:57;;;;;;;3.60;2.20;;;28.50;61.30;;;28.77;58.31;97638.22;5111397;27;20630;-68
2021/07/12 08:43:25;;;;;;;2.43;2.23;;;28.50;62.10;;;28.64;58.22;97646.44;5115634;27;20634;-68
2021/07/12 08:46:14;;;;;;;2.10;1.90;;;28.40;61.60;;;28.65;58.48;97628.47;5112794;27;20632;-68
2021/07/12 08:48:43;;;;;;;4.10;2.10;;;28.40;62.90;;;28.43;58.32;97621.97;5112577;27;20618;-68
2021/07/12 08:51:14;;;;;;;2.40;2.20;;;28.20;62.50;;;28.44;58.63;97610.16;5107740;28;20623;-68
2021/07/12 08:53:42;;;;;;;4.00;1.87;;;28.20;63.50;;;28.46;59.68;97608.06;5107423;28;20665;-68
2021/07/12 08:56:11;;;;;;;2.37;2.10;;;28.20;63.50;;;28.54;60.28;97599.72;5127700;27;20688;-68
2021/07/12 08:58:40;;;;;;;2.30;2.10;;;28.30;65.00;;;28.66;58.72;97605.94;5114200;27;20698;-68
2021/07/12 09:01:10;;;;;;;2.17;1.73;;;28.30;63.10;;;28.37;58.02;97603.25;5110895;27;20641;-68
2021/07/12 09:03:40;;;;;;;2.20;2.00;;;28.10;62.00;;;28.28;58.80;97604.59;5110981;27;20699;-68
2021/07/12 09:06:13;;;;;;;2.10;1.80;;;28.10;62.90;;;28.21;58.51;97609.25;5112263;27;20673;-68
2021/07/12 09:08:52;;;;;;;2.10;1.90;;;28.00;62.70;;;28.25;60.13;97607.75;5120541;27;20682;-68
2021/07/12 09:11:26;;;;;;;1.90;1.80;;;28.00;63.80;;;28.38;60.46;97605.69;5111135;27;20639;-68
2021/07/12 09:13:59;;;;;;;2.50;2.30;;;28.00;65.90;;;28.62;61.85;97600.19;5109400;28;20615;-68
2021/07/12 09:16:44;;;;;;;2.03;1.83;;;28.20;67.50;;;28.55;57.47;97590.59;5110157;27;20644;-68
2021/07/12 09:19:23;;;;;;;2.83;1.90;;;28.30;61.60;;;28.58;59.21;97592.81;5107195;27;20631;-68
2021/07/12 09:21:58;;;;;;;1.97;1.70;;;28.30;62.90;;;28.62;58.27;97608.25;5107997;27;20731;-68
2021/07/12 09:24:33;;;;;;;1.93;1.83;;;28.30;62.30;;;28.76;59.94;97607.06;5108979;28;20616;-69
2021/07/12 09:27:14;;;;;;;2.40;2.20;;;28.40;63.50;;;28.73;59.77;97609.34;5112077;27;20689;-69
2021/07/12 09:29:45;;;;;;;3.50;2.20;;;28.40;63.00;;;28.73;59.21;97598.59;5109004;27;20691;-69
2021/07/12 09:32:16;;;;;;;2.17;1.97;;;28.30;62.50;;;28.66;57.82;97597.88;5110250;27;20621;-69
2021/07/12 09:34:46;;;;;;;2.20;1.90;;;28.30;61.30;;;28.48;57.62;97589.03;5109868;28;20664;-69
2021/07/12 09:37:19;;;;;;;1.80;1.70;;;28.20;59.70;;;28.43;57.69;97592.44;5108038;27;20665;-69
2021/07/12 09:39:49;;;;;;;1.90;1.70;;;28.10;60.10;;;28.42;58.08;97585.41;5107222;27;20652;-69
2021/07/12 09:42:20;;;;;;;2.30;1.80;;;28.10;59.70;;;28.49;57.18;97592.34;5110700;28;21184;-69
2021/07/12 09:44:53;;;;;;;2.17;1.60;;;28.20;59.80;;;28.48;55.25;97588.00;5107272;27;20622;-69
2021/07/12 09:47:25;;;;;;;2.17;1.97;;;28.20;58.30;;;28.52;56.26;97597.25;5114153;27;21209;-69
2021/07/12 09:50:02;;;;;;;3.00;1.90;;;28.20;58.50;;;28.45;56.30;97587.66;5101921;27;20654;-69
2021/07/12 09:52:46;;;;;;;2.33;1.60;;;28.10;58.30;;;28.47;56.82;97588.22;5110628;27;20668;-69
2021/07/12 09:55:16;;;;;;;2.03;1.60;;;28.10;58.40;;;28.59;57.21;97594.47;5108015;27;20657;-69
2021/07/12 09:57:45;;;;;;;2.20;1.90;;;28.20;59.60;;;28.52;57.40;97597.25;5103151;28;21026;-69
2021/07/12 10:00:17;;;;;;;2.80;2.00;;;28.20;59.10;;;28.53;56.87;97603.44;5109808;28;20709;-69
2021/07/12 10:02:51;;;;;;;2.00;1.80;;;28.20;58.70;;;28.51;55.80;97597.47;5092181;28;20668;-69
2021/07/12 10:05:20;;;;;;;1.80;1.70;;;28.20;57.70;;;28.29;56.14;97598.19;5100066;27;20621;-69
2021/07/12 10:07:50;;;;;;;2.03;1.60;;;28.10;58.00;;;28.38;57.10;97603.00;5108180;27;20742;-69
2021/07/12 10:10:19;;;;;;;2.10;1.70;;;28.00;58.60;;;28.54;58.04;97618.50;5108900;27;20261;-69
2021/07/12 10:12:48;;;;;;;1.90;1.80;;;28.10;60.20;;;28.54;55.97;97610.44;5107110;27;20672;-69
2021/07/12 10:15:19;;;;;;;2.00;1.80;;;28.20;58.40;;;28.59;55.91;97599.81;5113661;27;20672;-69
2021/07/12 10:17:48;;;;;;;2.10;1.73;;;28.20;57.80;;;28.61;55.31;97595.03;5106543;27;21032;-69
2021/07/12 10:20:17;;;;;;;2.20;1.70;;;28.20;57.20;;;28.61;56.04;97582.44;5106358;27;21182;-69
2021/07/12 10:22:46;;;;;;;2.00;1.67;;;28.30;57.60;;;28.57;54.75;97588.50;5103782;28;20636;-69
2021/07/12 10:25:20;;;;;;;1.90;1.60;;;28.30;56.60;;;28.44;54.39;97588.69;5108740;27;20626;-69
2021/07/12 10:27:51;;;;;;;1.80;1.70;;;28.10;55.80;;;28.43;55.29;97573.66;5108397;27;20742;-69
2021/07/12 10:30:30;;;;;;;1.67;1.57;;;28.10;57.00;;;28.42;55.88;97563.94;5103978;27;20734;-68
2021/07/12 10:33:03;;;;;;;5.87;1.97;;;28.10;57.50;;;28.48;57.80;97554.13;5117647;27;20729;-69
2021/07/12 10:35:44;;;;;;;1.80;1.70;;;28.10;59.20;;;28.41;54.75;97559.59;5111047;27;20655;-69
2021/07/12 10:38:19;;;;;;;3.03;2.20;;;28.00;56.00;;;28.30;55.74;97563.06;5105417;28;21276;-70
2021/07/12 10:40:52;;;;;;;2.97;2.00;;;28.00;56.20;;;28.37;55.89;97563.81;5103224;27;20630;-70